sensor_id;sensor_type;location;lat;lon;timestamp;pressure;altitude;pressure_sealevel;temperature;humidity
42859;BME280;28505;56.970;40.998;2022-10-22T00:02:39;100437.25;;;0.81;100.00
42859;BME280;28505;56.970;40.998;2022-10-22T00:08:01;100408.66;;;0.58;100.00
42859;BME280;28505;56.970;40.998;2022-10-22T00:13:26;100409.84;;;0.62;100.00
42859;BME280;28505;56.970;40.998;2022-10-22T00:18:49;100432.50;;;0.89;100.00
42859;BME280;28505;56.970;40.998;2022-10-22T00:24:11;100436.31;;;0.93;100.00
42859;BME280;28505;56.970;40.998;2022-10-22T00:29:34;100496.22;;;1.33;100.00
42859;BME280;28505;56.970;40.998;2022-10-22T00:34:56;100496.59;;;1.36;100.00
42859;BME280;28505;56.970;40.998;2022-10-22T00:40:18;100491.88;;;1.38;100.00
42859;BME280;28505;56.970;40.998;2022-10-22T00:45:41;100472.31;;;1.33;100.00
42859;BME280;28505;56.970;40.998;2022-10-22T00:51:05;100442.72;;;1.29;100.00
42859;BME280;28505;56.970;40.998;2022-10-22T00:56:28;100479.75;;;1.68;100.00
42859;BME280;28505;56.970;40.998;2022-10-22T01:01:50;100473.31;;;1.75;100.00
42859;BME280;28505;56.970;40.998;2022-10-22T01:07:19;100427.31;;;1.56;100.00
42859;BME280;28505;56.970;40.998;2022-10-22T01:13:15;100480.53;;;1.86;100.00
42859;BME280;28505;56.970;40.998;2022-10-22T01:18:50;100481.72;;;1.91;100.00
42859;BME280;28505;56.970;40.998;2022-10-22T01:30:06;100485.34;;;1.96;100.00
42859;BME280;28505;56.970;40.998;2022-10-22T01:35:33;100485.25;;;2.03;100.00
42859;BME280;28505;56.970;40.998;2022-10-22T01:40:57;100463.84;;;1.79;100.00
42859;BME280;28505;56.970;40.998;2022-10-22T01:46:21;100500.25;;;1.97;100.00
42859;BME280;28505;56.970;40.998;2022-10-22T01:57:52;100506.63;;;1.96;100.00
42859;BME280;28505;56.970;40.998;2022-10-22T02:03:33;100477.72;;;1.81;100.00
42859;BME280;28505;56.970;40.998;2022-10-22T02:08:58;100509.03;;;1.98;100.00
42859;BME280;28505;56.970;40.998;2022-10-22T02:14:22;100511.09;;;1.96;100.00
42859;BME280;28505;56.970;40.998;2022-10-22T02:19:56;100493.25;;;1.84;100.00
42859;BME280;28505;56.970;40.998;2022-10-22T02:25:25;100514.78;;;1.95;100.00
42859;BME280;28505;56.970;40.998;2022-10-22T02:30:53;100466.53;;;1.61;100.00
42859;BME280;28505;56.970;40.998;2022-10-22T02:36:18;100472.56;;;1.68;100.00
42859;BME280;28505;56.970;40.998;2022-10-22T02:41:42;100476.41;;;1.54;100.00
42859;BME280;28505;56.970;40.998;2022-10-22T02:47:05;100471.34;;;1.27;100.00
42859;BME280;28505;56.970;40.998;2022-10-22T02:52:27;100477.16;;;1.17;100.00
42859;BME280;28505;56.970;40.998;2022-10-22T02:57:51;100431.75;;;0.82;100.00
42859;BME280;28505;56.970;40.998;2022-10-22T03:03:16;100507.63;;;1.15;100.00
42859;BME280;28505;56.970;40.998;2022-10-22T03:08:39;100478.31;;;0.78;100.00
42859;BME280;28505;56.970;40.998;2022-10-22T03:14:01;100489.00;;;0.65;100.00
42859;BME280;28505;56.970;40.998;2022-10-22T03:19:23;100464.78;;;0.30;100.00
42859;BME280;28505;56.970;40.998;2022-10-22T03:24:48;100496.72;;;0.41;100.00
42859;BME280;28505;56.970;40.998;2022-10-22T03:30:12;100529.56;;;0.40;100.00
42859;BME280;28505;56.970;40.998;2022-10-22T03:35:41;100530.22;;;0.29;100.00
42859;BME280;28505;56.970;40.998;2022-10-22T03:41:05;100528.44;;;0.23;100.00
42859;BME280;28505;56.970;40.998;2022-10-22T03:46:28;100536.22;;;0.18;100.00
42859;BME280;28505;56.970;40.998;2022-10-22T03:51:50;100534.78;;;0.15;100.00
42859;BME280;28505;56.970;40.998;2022-10-22T03:57:12;100527.72;;;-0.04;100.00
42859;BME280;28505;56.970;40.998;2022-10-22T04:02:33;100533.25;;;-0.06;100.00
42859;BME280;28505;56.970;40.998;2022-10-22T04:07:55;100542.41;;;-0.02;100.00
42859;BME280;28505;56.970;40.998;2022-10-22T04:13:18;100543.22;;;-0.01;100.00
42859;BME280;28505;56.970;40.998;2022-10-22T04:18:41;100534.25;;;0.00;100.00
42859;BME280;28505;56.970;40.998;2022-10-22T04:24:06;100539.34;;;0.02;100.00
42859;BME280;28505;56.970;40.998;2022-10-22T04:29:28;100534.03;;;0.02;100.00
42859;BME280;28505;56.970;40.998;2022-10-22T04:34:50;100534.81;;;0.09;100.00
42859;BME280;28505;56.970;40.998;2022-10-22T04:40:15;100547.63;;;0.18;100.00
42859;BME280;28505;56.970;40.998;2022-10-22T04:45:36;100553.69;;;0.32;100.00
42859;BME280;28505;56.970;40.998;2022-10-22T04:51:03;100542.50;;;0.30;100.00
42859;BME280;28505;56.970;40.998;2022-10-22T04:56:28;100561.50;;;0.59;100.00
42859;BME280;28505;56.970;40.998;2022-10-22T05:01:50;100515.59;;;0.58;100.00
42859;BME280;28505;56.970;40.998;2022-10-22T05:07:13;100560.41;;;1.30;100.00
42859;BME280;28505;56.970;40.998;2022-10-22T05:12:37;100520.44;;;1.25;100.00
42859;BME280;28505;56.970;40.998;2022-10-22T05:17:59;100563.03;;;1.80;100.00
42859;BME280;28505;56.970;40.998;2022-10-22T05:23:23;100570.44;;;1.96;100.00
42859;BME280;28505;56.970;40.998;2022-10-22T05:28:47;100543.09;;;1.71;100.00
42859;BME280;28505;56.970;40.998;2022-10-22T05:34:09;100584.66;;;2.02;100.00
42859;BME280;28505;56.970;40.998;2022-10-22T05:39:31;100578.91;;;2.05;100.00
42859;BME280;28505;56.970;40.998;2022-10-22T05:44:57;100582.91;;;2.14;100.00
42859;BME280;28505;56.970;40.998;2022-10-22T05:50:19;100586.91;;;2.23;100.00
42859;BME280;28505;56.970;40.998;2022-10-22T05:55:41;100586.84;;;2.42;100.00
42859;BME280;28505;56.970;40.998;2022-10-22T06:01:14;100590.09;;;2.62;100.00
42859;BME280;28505;56.970;40.998;2022-10-22T06:12:04;100583.41;;;2.71;100.00
42859;BME280;28505;56.970;40.998;2022-10-22T06:17:30;100601.91;;;2.96;100.00
42859;BME280;28505;56.970;40.998;2022-10-22T06:22:54;100606.47;;;3.08;100.00
42859;BME280;28505;56.970;40.998;2022-10-22T06:28:17;100611.09;;;3.12;100.00
42859;BME280;28505;56.970;40.998;2022-10-22T06:33:41;100595.81;;;3.19;100.00
42859;BME280;28505;56.970;40.998;2022-10-22T06:39:04;100592.75;;;3.34;100.00
42859;BME280;28505;56.970;40.998;2022-10-22T06:44:26;100588.09;;;3.41;100.00
42859;BME280;28505;56.970;40.998;2022-10-22T06:49:51;100578.50;;;3.40;100.00
42859;BME280;28505;56.970;40.998;2022-10-22T06:55:13;100595.91;;;3.66;100.00
42859;BME280;28505;56.970;40.998;2022-10-22T07:00:35;100561.09;;;3.61;100.00
42859;BME280;28505;56.970;40.998;2022-10-22T07:06:01;100587.16;;;3.94;100.00
42859;BME280;28505;56.970;40.998;2022-10-22T07:11:25;100594.38;;;4.06;100.00
42859;BME280;28505;56.970;40.998;2022-10-22T07:16:48;100596.06;;;4.12;100.00
42859;BME280;28505;56.970;40.998;2022-10-22T07:22:13;100578.31;;;4.17;100.00
42859;BME280;28505;56.970;40.998;2022-10-22T07:27:36;100600.09;;;4.38;100.00
42859;BME280;28505;56.970;40.998;2022-10-22T07:32:59;100599.13;;;4.44;100.00
42859;BME280;28505;56.970;40.998;2022-10-22T07:38:21;100592.16;;;4.55;100.00
42859;BME280;28505;56.970;40.998;2022-10-22T07:43:44;100593.81;;;4.73;100.00
42859;BME280;28505;56.970;40.998;2022-10-22T07:49:06;100602.28;;;4.81;100.00
42859;BME280;28505;56.970;40.998;2022-10-22T07:54:28;100593.44;;;4.81;100.00
42859;BME280;28505;56.970;40.998;2022-10-22T07:59:51;100589.72;;;4.82;100.00
42859;BME280;28505;56.970;40.998;2022-10-22T08:05:17;100596.31;;;4.91;100.00
42859;BME280;28505;56.970;40.998;2022-10-22T08:10:40;100585.22;;;4.99;100.00
42859;BME280;28505;56.970;40.998;2022-10-22T08:16:05;100590.03;;;5.14;100.00
42859;BME280;28505;56.970;40.998;2022-10-22T08:21:26;100591.47;;;5.22;100.00
42859;BME280;28505;56.970;40.998;2022-10-22T08:26:48;100593.66;;;5.25;100.00
42859;BME280;28505;56.970;40.998;2022-10-22T08:32:10;100595.28;;;5.26;100.00
42859;BME280;28505;56.970;40.998;2022-10-22T08:37:34;100589.22;;;5.30;100.00
42859;BME280;28505;56.970;40.998;2022-10-22T08:43:35;100589.56;;;5.34;100.00
42859;BME280;28505;56.970;40.998;2022-10-22T08:48:56;100583.13;;;5.35;100.00
42859;BME280;28505;56.970;40.998;2022-10-22T09:00:04;100589.94;;;5.43;100.00
42859;BME280;28505;56.970;40.998;2022-10-22T09:05:47;100589.44;;;5.46;100.00
42859;BME280;28505;56.970;40.998;2022-10-22T09:11:35;100593.81;;;5.52;100.00
42859;BME280;28505;56.970;40.998;2022-10-22T09:17:20;100591.97;;;5.52;100.00
42859;BME280;28505;56.970;40.998;2022-10-22T09:23:23;100581.25;;;5.52;100.00
42859;BME280;28505;56.970;40.998;2022-10-22T09:28:50;100504.19;;;5.10;100.00
42859;BME280;28505;56.970;40.998;2022-10-22T09:34:22;100492.50;;;5.00;100.00
42859;BME280;28505;56.970;40.998;2022-10-22T09:39:47;100499.81;;;5.04;100.00
42859;BME280;28505;56.970;40.998;2022-10-22T09:45:23;100490.25;;;5.08;100.00
42859;BME280;28505;56.970;40.998;2022-10-22T09:50:49;100534.03;;;5.41;100.00
42859;BME280;28505;56.970;40.998;2022-10-22T09:56:24;100569.91;;;5.79;100.00
42859;BME280;28505;56.970;40.998;2022-10-22T10:01:56;100529.97;;;5.55;100.00
42859;BME280;28505;56.970;40.998;2022-10-22T10:07:39;100533.47;;;5.56;100.00
42859;BME280;28505;56.970;40.998;2022-10-22T10:13:20;100568.34;;;5.83;100.00
42859;BME280;28505;56.970;40.998;2022-10-22T10:30:16;100557.69;;;5.88;100.00
42859;BME280;28505;56.970;40.998;2022-10-22T10:35:49;100551.31;;;5.89;100.00
42859;BME280;28505;56.970;40.998;2022-10-22T10:47:25;100543.13;;;5.96;100.00
42859;BME280;28505;56.970;40.998;2022-10-22T10:53:05;100545.84;;;6.01;100.00
42859;BME280;28505;56.970;40.998;2022-10-22T11:04:45;100541.31;;;6.01;100.00
42859;BME280;28505;56.970;40.998;2022-10-22T11:15:38;100517.78;;;6.03;100.00
42859;BME280;28505;56.970;40.998;2022-10-22T11:32:14;100462.72;;;5.69;100.00
42859;BME280;28505;56.970;40.998;2022-10-22T11:37:38;100489.50;;;5.91;100.00
42859;BME280;28505;56.970;40.998;2022-10-22T11:43:07;100449.00;;;5.60;100.00
42859;BME280;28505;56.970;40.998;2022-10-22T11:48:35;100488.63;;;5.85;100.00
42859;BME280;28505;56.970;40.998;2022-10-22T11:54:02;100516.72;;;6.04;100.00
42859;BME280;28505;56.970;40.998;2022-10-22T12:11:02;100446.06;;;5.61;100.00
42859;BME280;28505;56.970;40.998;2022-10-22T12:16:27;100431.44;;;5.47;100.00
42859;BME280;28505;56.970;40.998;2022-10-22T12:22:14;100500.47;;;5.89;100.00
42859;BME280;28505;56.970;40.998;2022-10-22T12:27:52;100370.88;;;5.14;100.00
42859;BME280;28505;56.970;40.998;2022-10-22T12:33:19;100488.69;;;5.90;100.00
42859;BME280;28505;56.970;40.998;2022-10-22T12:38:44;100468.44;;;5.72;100.00
42859;BME280;28505;56.970;40.998;2022-10-22T12:44:11;100487.28;;;5.82;100.00
42859;BME280;28505;56.970;40.998;2022-10-22T12:49:38;100471.72;;;5.79;100.00
42859;BME280;28505;56.970;40.998;2022-10-22T12:55:04;100446.06;;;5.61;100.00
42859;BME280;28505;56.970;40.998;2022-10-22T13:00:32;100460.06;;;5.69;100.00
42859;BME280;28505;56.970;40.998;2022-10-22T13:05:55;100451.22;;;5.68;100.00
42859;BME280;28505;56.970;40.998;2022-10-22T13:11:19;100462.25;;;5.72;100.00
42859;BME280;28505;56.970;40.998;2022-10-22T13:16:41;100462.72;;;5.69;100.00
42859;BME280;28505;56.970;40.998;2022-10-22T13:22:03;100448.50;;;5.63;100.00
42859;BME280;28505;56.970;40.998;2022-10-22T13:27:27;100432.84;;;5.50;100.00
42859;BME280;28505;56.970;40.998;2022-10-22T13:32:52;100379.38;;;5.11;100.00
42859;BME280;28505;56.970;40.998;2022-10-22T13:38:20;100420.06;;;5.35;100.00
42859;BME280;28505;56.970;40.998;2022-10-22T13:43:43;100428.69;;;5.42;100.00
42859;BME280;28505;56.970;40.998;2022-10-22T13:49:05;100416.75;;;5.28;100.00
42859;BME280;28505;56.970;40.998;2022-10-22T13:54:27;100382.72;;;5.01;100.00
42859;BME280;28505;56.970;40.998;2022-10-22T13:59:50;100438.72;;;5.30;100.00
42859;BME280;28505;56.970;40.998;2022-10-22T14:05:13;100424.88;;;5.16;100.00
42859;BME280;28505;56.970;40.998;2022-10-22T14:10:38;100390.16;;;4.99;100.00
42859;BME280;28505;56.970;40.998;2022-10-22T14:16:01;100400.84;;;4.99;100.00
42859;BME280;28505;56.970;40.998;2022-10-22T14:21:31;100380.88;;;4.85;100.00
42859;BME280;28505;56.970;40.998;2022-10-22T14:26:55;100351.03;;;4.71;100.00
42859;BME280;28505;56.970;40.998;2022-10-22T14:32:18;100443.16;;;5.24;100.00
42859;BME280;28505;56.970;40.998;2022-10-22T14:37:41;100439.69;;;5.24;100.00
42859;BME280;28505;56.970;40.998;2022-10-22T14:43:03;100435.97;;;5.25;100.00
42859;BME280;28505;56.970;40.998;2022-10-22T14:48:25;100430.28;;;5.21;100.00
42859;BME280;28505;56.970;40.998;2022-10-22T14:53:48;100441.78;;;5.22;100.00
42859;BME280;28505;56.970;40.998;2022-10-22T14:59:09;100450.88;;;5.21;100.00
42859;BME280;28505;56.970;40.998;2022-10-22T15:04:31;100447.13;;;5.22;100.00
42859;BME280;28505;56.970;40.998;2022-10-22T15:09:53;100436.94;;;5.19;100.00
42859;BME280;28505;56.970;40.998;2022-10-22T15:15:16;100440.66;;;5.18;100.00
42859;BME280;28505;56.970;40.998;2022-10-22T15:20:43;100445.75;;;5.19;100.00
42859;BME280;28505;56.970;40.998;2022-10-22T15:26:09;100428.69;;;5.20;100.00
42859;BME280;28505;56.970;40.998;2022-10-22T15:31:47;100442.28;;;5.19;100.00
42859;BME280;28505;56.970;40.998;2022-10-22T15:37:11;100374.31;;;4.76;100.00
42859;BME280;28505;56.970;40.998;2022-10-22T15:42:34;100405.06;;;4.95;100.00
42859;BME280;28505;56.970;40.998;2022-10-22T15:47:58;100364.13;;;4.73;100.00
42859;BME280;28505;56.970;40.998;2022-10-22T15:53:21;100364.13;;;4.73;100.00
42859;BME280;28505;56.970;40.998;2022-10-22T15:58:47;100409.19;;;5.03;100.00
42859;BME280;28505;56.970;40.998;2022-10-22T16:04:13;100382.44;;;4.81;100.00
42859;BME280;28505;56.970;40.998;2022-10-22T16:09:36;100382.09;;;4.77;100.00
42859;BME280;28505;56.970;40.998;2022-10-22T16:15:00;100363.22;;;4.67;100.00
42859;BME280;28505;56.970;40.998;2022-10-22T16:20:26;100433.63;;;5.11;100.00
42859;BME280;28505;56.970;40.998;2022-10-22T16:25:49;100414.78;;;5.01;100.00
42859;BME280;28505;56.970;40.998;2022-10-22T16:31:13;100394.38;;;4.95;100.00
42859;BME280;28505;56.970;40.998;2022-10-22T16:36:36;100368.97;;;4.76;100.00
42859;BME280;28505;56.970;40.998;2022-10-22T16:42:01;100410.72;;;4.99;100.00
42859;BME280;28505;56.970;40.998;2022-10-22T16:47:24;100313.81;;;4.31;100.00
42859;BME280;28505;56.970;40.998;2022-10-22T16:53:16;100434.03;;;5.03;100.00
42859;BME280;28505;56.970;40.998;2022-10-22T16:58:53;100312.59;;;4.21;100.00
42859;BME280;28505;56.970;40.998;2022-10-22T17:04:43;100398.69;;;4.79;100.00
42859;BME280;28505;56.970;40.998;2022-10-22T17:22:55;100303.31;;;4.07;100.00
42859;BME280;28505;56.970;40.998;2022-10-22T17:28:29;100419.31;;;4.84;100.00
42859;BME280;28505;56.970;40.998;2022-10-22T17:33:53;100418.50;;;4.83;100.00
42859;BME280;28505;56.970;40.998;2022-10-22T17:39:16;100397.31;;;4.77;100.00
42859;BME280;28505;56.970;40.998;2022-10-22T17:44:39;100405.94;;;4.84;100.00
42859;BME280;28505;56.970;40.998;2022-10-22T17:50:02;100408.13;;;4.87;100.00
42859;BME280;28505;56.970;40.998;2022-10-22T17:55:24;100410.59;;;4.88;100.00
42859;BME280;28505;56.970;40.998;2022-10-22T18:00:46;100404.59;;;4.81;100.00
42859;BME280;28505;56.970;40.998;2022-10-22T18:06:08;100392.44;;;4.74;100.00
42859;BME280;28505;56.970;40.998;2022-10-22T18:11:31;100413.75;;;4.85;100.00
42859;BME280;28505;56.970;40.998;2022-10-22T18:16:54;100380.63;;;4.69;100.00
42859;BME280;28505;56.970;40.998;2022-10-22T18:22:16;100379.50;;;4.65;100.00
42859;BME280;28505;56.970;40.998;2022-10-22T18:27:38;100369.31;;;4.62;100.00
42859;BME280;28505;56.970;40.998;2022-10-22T18:33:01;100297.31;;;4.17;100.00
42859;BME280;28505;56.970;40.998;2022-10-22T18:38:23;100280.03;;;4.03;100.00
42859;BME280;28505;56.970;40.998;2022-10-22T18:43:52;100311.88;;;4.26;100.00
42859;BME280;28505;56.970;40.998;2022-10-22T18:49:17;100301.38;;;4.19;100.00
42859;BME280;28505;56.970;40.998;2022-10-22T18:54:39;100311.72;;;4.33;100.00
42859;BME280;28505;56.970;40.998;2022-10-22T19:00:02;100380.25;;;4.78;100.00
42859;BME280;28505;56.970;40.998;2022-10-22T19:05:26;100369.31;;;4.79;100.00
42859;BME280;28505;56.970;40.998;2022-10-22T19:10:50;100360.41;;;4.74;100.00
42859;BME280;28505;56.970;40.998;2022-10-22T19:16:17;100346.41;;;4.66;100.00
42859;BME280;28505;56.970;40.998;2022-10-22T19:21:44;100368.72;;;4.77;100.00
42859;BME280;28505;56.970;40.998;2022-10-22T19:27:06;100370.59;;;4.77;100.00
42859;BME280;28505;56.970;40.998;2022-10-22T19:32:29;100301.53;;;4.30;100.00
42859;BME280;28505;56.970;40.998;2022-10-22T19:37:51;100291.81;;;4.23;100.00
42859;BME280;28505;56.970;40.998;2022-10-22T19:43:13;100284.31;;;4.20;100.00
42859;BME280;28505;56.970;40.998;2022-10-22T19:48:39;100366.06;;;4.60;100.00
42859;BME280;28505;56.970;40.998;2022-10-22T19:54:05;100348.94;;;4.56;100.00
42859;BME280;28505;56.970;40.998;2022-10-22T19:59:28;100351.59;;;4.56;100.00
42859;BME280;28505;56.970;40.998;2022-10-22T20:04:52;100364.63;;;4.69;100.00
42859;BME280;28505;56.970;40.998;2022-10-22T20:10:14;100358.38;;;4.64;100.00
42859;BME280;28505;56.970;40.998;2022-10-22T20:15:36;100368.34;;;4.68;100.00
42859;BME280;28505;56.970;40.998;2022-10-22T20:21:03;100358.38;;;4.64;100.00
42859;BME280;28505;56.970;40.998;2022-10-22T20:26:27;100350.63;;;4.62;100.00
42859;BME280;28505;56.970;40.998;2022-10-22T20:31:49;100353.28;;;4.62;100.00
42859;BME280;28505;56.970;40.998;2022-10-22T20:37:11;100354.19;;;4.68;100.00
42859;BME280;28505;56.970;40.998;2022-10-22T20:42:33;100357.34;;;4.65;100.00
42859;BME280;28505;56.970;40.998;2022-10-22T20:47:56;100361.38;;;4.67;100.00
42859;BME280;28505;56.970;40.998;2022-10-22T20:53:23;100343.75;;;4.66;100.00
42859;BME280;28505;56.970;40.998;2022-10-22T20:58:46;100341.56;;;4.63;100.00
42859;BME280;28505;56.970;40.998;2022-10-22T21:04:09;100323.78;;;4.52;100.00
42859;BME280;28505;56.970;40.998;2022-10-22T21:09:31;100341.16;;;4.72;100.00
42859;BME280;28505;56.970;40.998;2022-10-22T21:14:55;100336.31;;;4.68;100.00
42859;BME280;28505;56.970;40.998;2022-10-22T21:20:16;100330.47;;;4.72;100.00
42859;BME280;28505;56.970;40.998;2022-10-22T21:25:52;100327.81;;;4.72;100.00
42859;BME280;28505;56.970;40.998;2022-10-22T21:31:16;100263.59;;;4.28;100.00
42859;BME280;28505;56.970;40.998;2022-10-22T21:36:46;100248.56;;;4.21;100.00
42859;BME280;28505;56.970;40.998;2022-10-22T21:42:09;100238.94;;;4.20;100.00
42859;BME280;28505;56.970;40.998;2022-10-22T21:47:31;100264.09;;;4.41;100.00
42859;BME280;28505;56.970;40.998;2022-10-22T21:52:53;100255.09;;;4.31;100.00
42859;BME280;28505;56.970;40.998;2022-10-22T21:58:15;100252.84;;;4.39;100.00
42859;BME280;28505;56.970;40.998;2022-10-22T22:03:41;100299.72;;;4.69;100.00
42859;BME280;28505;56.970;40.998;2022-10-22T22:09:04;100266.59;;;4.48;100.00
42859;BME280;28505;56.970;40.998;2022-10-22T22:14:27;100208.69;;;4.15;100.00
42859;BME280;28505;56.970;40.998;2022-10-22T22:19:49;100193.34;;;4.05;100.00
42859;BME280;28505;56.970;40.998;2022-10-22T22:25:12;100220.09;;;4.27;100.00
42859;BME280;28505;56.970;40.998;2022-10-22T22:30:34;100192.38;;;4.11;100.00
42859;BME280;28505;56.970;40.998;2022-10-22T22:35:57;100229.47;;;4.30;100.00
42859;BME280;28505;56.970;40.998;2022-10-22T22:41:20;100201.59;;;4.20;100.00
42859;BME280;28505;56.970;40.998;2022-10-22T22:46:43;100256.84;;;4.59;100.00
42859;BME280;28505;56.970;40.998;2022-10-22T22:52:05;100223.38;;;4.34;100.00
42859;BME280;28505;56.970;40.998;2022-10-22T22:57:28;100213.19;;;4.31;100.00
42859;BME280;28505;56.970;40.998;2022-10-22T23:02:54;100227.34;;;4.49;100.00
42859;BME280;28505;56.970;40.998;2022-10-22T23:08:18;100187.84;;;4.29;100.00
42859;BME280;28505;56.970;40.998;2022-10-22T23:13:41;100183.47;;;4.22;100.00
42859;BME280;28505;56.970;40.998;2022-10-22T23:19:04;100166.66;;;4.22;100.00
42859;BME280;28505;56.970;40.998;2022-10-22T23:24:28;100180.47;;;4.36;100.00
42859;BME280;28505;56.970;40.998;2022-10-22T23:29:50;100227.03;;;4.67;100.00
42859;BME280;28505;56.970;40.998;2022-10-22T23:35:12;100234.06;;;4.73;100.00
42859;BME280;28505;56.970;40.998;2022-10-22T23:40:35;100230.59;;;4.73;100.00
42859;BME280;28505;56.970;40.998;2022-10-22T23:46:00;100230.59;;;4.73;100.00
42859;BME280;28505;56.970;40.998;2022-10-22T23:51:23;100222.09;;;4.76;100.00
42859;BME280;28505;56.970;40.998;2022-10-22T23:56:45;100219.97;;;4.78;100.00
